sensor_id;sensor_type;location;lat;lon;timestamp;pressure;altitude;pressure_sealevel;temperature;humidity
41040;BME280;48586;50.122;18.972;2022-12-22T00:01:15;98328.00;;;1.55;73.02
41040;BME280;48586;50.122;18.972;2022-12-22T00:03:32;98332.53;;;1.61;73.13
41040;BME280;48586;50.122;18.972;2022-12-22T00:05:50;98320.84;;;1.64;72.96
41040;BME280;48586;50.122;18.972;2022-12-22T00:08:09;98318.41;;;1.62;73.06
41040;BME280;48586;50.122;18.972;2022-12-22T00:10:26;98320.03;;;1.63;73.17
41040;BME280;48586;50.122;18.972;2022-12-22T00:12:45;98328.91;;;1.62;73.12
41040;BME280;48586;50.122;18.972;2022-12-22T00:15:04;98329.91;;;1.61;73.29
41040;BME280;48586;50.122;18.972;2022-12-22T00:17:27;98328.03;;;1.70;73.13
41040;BME280;48586;50.122;18.972;2022-12-22T00:19:45;98320.78;;;1.72;73.03
41040;BME280;48586;50.122;18.972;2022-12-22T00:22:17;98318.59;;;1.76;72.98
41040;BME280;48586;50.122;18.972;2022-12-22T00:24:37;98313.00;;;1.79;72.91
41040;BME280;48586;50.122;18.972;2022-12-22T00:26:56;98309.84;;;1.83;73.09
41040;BME280;48586;50.122;18.972;2022-12-22T00:29:14;98311.25;;;1.86;72.84
41040;BME280;48586;50.122;18.972;2022-12-22T00:31:31;98316.97;;;1.89;72.95
41040;BME280;48586;50.122;18.972;2022-12-22T00:33:52;98317.78;;;1.90;72.64
41040;BME280;48586;50.122;18.972;2022-12-22T00:36:11;98317.44;;;1.93;72.89
41040;BME280;48586;50.122;18.972;2022-12-22T00:38:30;98314.81;;;1.93;72.84
41040;BME280;48586;50.122;18.972;2022-12-22T00:40:49;98317.69;;;1.98;72.63
41040;BME280;48586;50.122;18.972;2022-12-22T00:43:06;98326.22;;;2.00;72.49
41040;BME280;48586;50.122;18.972;2022-12-22T00:45:24;98324.41;;;2.01;72.41
41040;BME280;48586;50.122;18.972;2022-12-22T00:47:43;98318.81;;;2.04;72.21
41040;BME280;48586;50.122;18.972;2022-12-22T00:50:08;98332.91;;;2.03;72.15
41040;BME280;48586;50.122;18.972;2022-12-22T00:52:25;98327.84;;;2.01;72.01
41040;BME280;48586;50.122;18.972;2022-12-22T00:54:43;98334.13;;;2.00;72.22
41040;BME280;48586;50.122;18.972;2022-12-22T00:57:01;98328.41;;;1.96;71.97
41040;BME280;48586;50.122;18.972;2022-12-22T00:59:19;98331.84;;;1.97;72.08
41040;BME280;48586;50.122;18.972;2022-12-22T01:01:36;98316.72;;;1.84;72.30
41040;BME280;48586;50.122;18.972;2022-12-22T01:03:54;98327.56;;;1.81;72.29
41040;BME280;48586;50.122;18.972;2022-12-22T01:06:13;98324.59;;;1.69;72.78
41040;BME280;48586;50.122;18.972;2022-12-22T01:08:33;98328.38;;;1.67;72.52
41040;BME280;48586;50.122;18.972;2022-12-22T01:10:52;98319.03;;;1.64;72.82
41040;BME280;48586;50.122;18.972;2022-12-22T01:13:10;98324.28;;;1.64;72.89
41040;BME280;48586;50.122;18.972;2022-12-22T01:15:29;98323.13;;;1.67;72.80
41040;BME280;48586;50.122;18.972;2022-12-22T01:17:46;98335.44;;;1.66;72.55
41040;BME280;48586;50.122;18.972;2022-12-22T01:20:04;98335.78;;;1.63;72.82
41040;BME280;48586;50.122;18.972;2022-12-22T01:22:27;98340.97;;;1.57;73.07
41040;BME280;48586;50.122;18.972;2022-12-22T01:24:44;98339.94;;;1.58;73.14
41040;BME280;48586;50.122;18.972;2022-12-22T01:27:02;98331.63;;;1.54;73.23
41040;BME280;48586;50.122;18.972;2022-12-22T01:29:20;98328.00;;;1.55;73.48
41040;BME280;48586;50.122;18.972;2022-12-22T01:31:37;98332.06;;;1.58;73.07
41040;BME280;48586;50.122;18.972;2022-12-22T01:33:56;98336.97;;;1.61;73.16
41040;BME280;48586;50.122;18.972;2022-12-22T01:36:15;98340.03;;;1.64;73.26
41040;BME280;48586;50.122;18.972;2022-12-22T01:38:36;98330.47;;;1.71;72.71
41040;BME280;48586;50.122;18.972;2022-12-22T01:40:54;98332.47;;;1.69;72.80
41040;BME280;48586;50.122;18.972;2022-12-22T01:43:19;98329.47;;;1.72;72.56
41040;BME280;48586;50.122;18.972;2022-12-22T01:45:39;98331.94;;;1.74;72.62
41040;BME280;48586;50.122;18.972;2022-12-22T01:47:56;98334.25;;;1.69;72.49
41040;BME280;48586;50.122;18.972;2022-12-22T01:50:15;98325.88;;;1.73;72.44
41040;BME280;48586;50.122;18.972;2022-12-22T01:52:35;98323.25;;;1.73;72.27
41040;BME280;48586;50.122;18.972;2022-12-22T01:55:00;98325.03;;;1.73;72.38
41040;BME280;48586;50.122;18.972;2022-12-22T01:57:22;98327.84;;;1.71;72.14
41040;BME280;48586;50.122;18.972;2022-12-22T01:59:39;98328.50;;;1.73;72.27
41040;BME280;48586;50.122;18.972;2022-12-22T02:01:57;98317.13;;;1.73;72.26
41040;BME280;48586;50.122;18.972;2022-12-22T02:04:18;98318.97;;;1.72;72.17
41040;BME280;48586;50.122;18.972;2022-12-22T02:06:40;98314.72;;;1.71;72.20
41040;BME280;48586;50.122;18.972;2022-12-22T02:09:16;98311.72;;;1.75;72.17
41040;BME280;48586;50.122;18.972;2022-12-22T02:12:04;98323.84;;;1.76;72.31
41040;BME280;48586;50.122;18.972;2022-12-22T02:14:34;98313.81;;;1.79;72.52
41040;BME280;48586;50.122;18.972;2022-12-22T02:17:11;98302.75;;;1.84;72.48
41040;BME280;48586;50.122;18.972;2022-12-22T02:22:38;98318.25;;;1.93;72.03
41040;BME280;48586;50.122;18.972;2022-12-22T02:25:09;98319.25;;;1.92;71.94
41040;BME280;48586;50.122;18.972;2022-12-22T02:27:38;98312.38;;;1.91;72.32
41040;BME280;48586;50.122;18.972;2022-12-22T02:30:03;98319.25;;;1.92;72.50
41040;BME280;48586;50.122;18.972;2022-12-22T02:32:22;98307.28;;;1.90;72.53
41040;BME280;48586;50.122;18.972;2022-12-22T02:34:41;98301.47;;;1.94;72.44
41040;BME280;48586;50.122;18.972;2022-12-22T02:37:08;98308.56;;;1.94;72.45
41040;BME280;48586;50.122;18.972;2022-12-22T02:39:40;98298.69;;;1.96;72.34
41040;BME280;48586;50.122;18.972;2022-12-22T02:42:18;98307.19;;;1.98;71.99
41040;BME280;48586;50.122;18.972;2022-12-22T02:44:58;98296.34;;;2.01;71.99
41040;BME280;48586;50.122;18.972;2022-12-22T02:47:33;98304.09;;;1.94;72.48
41040;BME280;48586;50.122;18.972;2022-12-22T02:50:03;98310.00;;;1.96;72.56
41040;BME280;48586;50.122;18.972;2022-12-22T02:52:32;98317.09;;;1.96;72.61
41040;BME280;48586;50.122;18.972;2022-12-22T02:54:52;98313.25;;;1.98;72.80
41040;BME280;48586;50.122;18.972;2022-12-22T02:57:09;98318.34;;;2.00;72.59
41040;BME280;48586;50.122;18.972;2022-12-22T02:59:26;98311.91;;;2.03;72.52
41040;BME280;48586;50.122;18.972;2022-12-22T03:01:46;98306.91;;;2.08;72.20
41040;BME280;48586;50.122;18.972;2022-12-22T03:04:03;98322.59;;;2.01;72.50
41040;BME280;48586;50.122;18.972;2022-12-22T03:06:20;98305.66;;;2.04;72.55
41040;BME280;48586;50.122;18.972;2022-12-22T03:08:37;98311.34;;;2.07;72.55
41040;BME280;48586;50.122;18.972;2022-12-22T03:10:53;98312.16;;;2.08;72.25
41040;BME280;48586;50.122;18.972;2022-12-22T03:13:10;98309.03;;;2.12;72.42
41040;BME280;48586;50.122;18.972;2022-12-22T03:15:27;98302.22;;;2.18;72.22
41040;BME280;48586;50.122;18.972;2022-12-22T03:17:46;98300.41;;;2.18;71.99
41040;BME280;48586;50.122;18.972;2022-12-22T03:20:05;98303.47;;;2.22;71.93
41040;BME280;48586;50.122;18.972;2022-12-22T03:22:22;98294.22;;;2.26;71.65
41040;BME280;48586;50.122;18.972;2022-12-22T03:24:39;98281.91;;;2.27;71.51
41040;BME280;48586;50.122;18.972;2022-12-22T03:26:56;98297.22;;;2.23;71.96
41040;BME280;48586;50.122;18.972;2022-12-22T03:29:00;98293.41;;;2.26;71.89
41040;BME280;48586;50.122;18.972;2022-12-22T03:31:05;98286.50;;;2.24;71.73
41040;BME280;48586;50.122;18.972;2022-12-22T03:33:13;98288.59;;;2.29;71.77
41040;BME280;48586;50.122;18.972;2022-12-22T03:35:17;98287.78;;;2.29;71.68
41040;BME280;48586;50.122;18.972;2022-12-22T03:37:21;98303.53;;;2.29;71.84
41040;BME280;48586;50.122;18.972;2022-12-22T03:39:25;98296.47;;;2.29;71.38
41040;BME280;48586;50.122;18.972;2022-12-22T03:41:30;98283.31;;;2.29;71.52
41040;BME280;48586;50.122;18.972;2022-12-22T03:43:46;98284.88;;;2.23;71.73
41040;BME280;48586;50.122;18.972;2022-12-22T03:46:04;98277.34;;;2.20;72.13
41040;BME280;48586;50.122;18.972;2022-12-22T03:48:26;98274.00;;;2.27;72.13
41040;BME280;48586;50.122;18.972;2022-12-22T03:50:30;98269.38;;;2.29;71.58
41040;BME280;48586;50.122;18.972;2022-12-22T03:52:35;98272.00;;;2.29;71.92
41040;BME280;48586;50.122;18.972;2022-12-22T03:54:39;98281.25;;;2.24;72.11
41040;BME280;48586;50.122;18.972;2022-12-22T03:56:44;98279.81;;;2.22;72.26
41040;BME280;48586;50.122;18.972;2022-12-22T03:58:50;98281.44;;;2.23;72.29
41040;BME280;48586;50.122;18.972;2022-12-22T04:01:04;98266.50;;;2.23;72.43
41040;BME280;48586;50.122;18.972;2022-12-22T04:03:09;98268.75;;;2.27;72.09
41040;BME280;48586;50.122;18.972;2022-12-22T04:05:17;98280.28;;;2.26;72.25
41040;BME280;48586;50.122;18.972;2022-12-22T04:07:21;98279.63;;;2.23;72.34
41040;BME280;48586;50.122;18.972;2022-12-22T04:09:25;98272.19;;;2.27;72.57
41040;BME280;48586;50.122;18.972;2022-12-22T04:11:30;98277.09;;;2.30;72.58
41040;BME280;48586;50.122;18.972;2022-12-22T04:13:47;98274.47;;;2.30;72.53
41040;BME280;48586;50.122;18.972;2022-12-22T04:15:48;98270.03;;;2.31;72.53
41040;BME280;48586;50.122;18.972;2022-12-22T04:17:54;98271.63;;;2.32;72.68
41040;BME280;48586;50.122;18.972;2022-12-22T04:19:58;98262.38;;;2.36;72.45
41040;BME280;48586;50.122;18.972;2022-12-22T04:22:05;98268.25;;;2.38;72.19
41040;BME280;48586;50.122;18.972;2022-12-22T04:24:11;98264.00;;;2.37;72.31
41040;BME280;48586;50.122;18.972;2022-12-22T04:26:16;98265.38;;;2.33;72.35
41040;BME280;48586;50.122;18.972;2022-12-22T04:28:21;98255.13;;;2.38;72.25
41040;BME280;48586;50.122;18.972;2022-12-22T04:30:25;98253.13;;;2.40;72.13
41040;BME280;48586;50.122;18.972;2022-12-22T04:32:29;98257.38;;;2.41;72.29
41040;BME280;48586;50.122;18.972;2022-12-22T04:34:33;98251.97;;;2.42;72.14
41040;BME280;48586;50.122;18.972;2022-12-22T04:36:38;98253.38;;;2.45;72.10
41040;BME280;48586;50.122;18.972;2022-12-22T04:38:45;98255.66;;;2.48;71.98
41040;BME280;48586;50.122;18.972;2022-12-22T04:40:49;98251.41;;;2.47;71.94
41040;BME280;48586;50.122;18.972;2022-12-22T04:42:54;98248.38;;;2.50;71.86
41040;BME280;48586;50.122;18.972;2022-12-22T04:44:58;98243.13;;;2.50;71.56
41040;BME280;48586;50.122;18.972;2022-12-22T04:47:02;98256.47;;;2.48;71.71
41040;BME280;48586;50.122;18.972;2022-12-22T04:49:07;98254.41;;;2.44;71.89
41040;BME280;48586;50.122;18.972;2022-12-22T04:51:11;98250.75;;;2.45;72.01
41040;BME280;48586;50.122;18.972;2022-12-22T04:53:15;98245.69;;;2.43;72.03
41040;BME280;48586;50.122;18.972;2022-12-22T04:55:20;98250.13;;;2.43;72.13
41040;BME280;48586;50.122;18.972;2022-12-22T04:57:24;98237.00;;;2.43;72.14
41040;BME280;48586;50.122;18.972;2022-12-22T04:59:28;98230.09;;;2.42;72.35
41040;BME280;48586;50.122;18.972;2022-12-22T05:01:33;98236.19;;;2.42;72.27
41040;BME280;48586;50.122;18.972;2022-12-22T05:03:37;98241.59;;;2.41;71.84
41040;BME280;48586;50.122;18.972;2022-12-22T05:05:42;98242.97;;;2.37;72.36
41040;BME280;48586;50.122;18.972;2022-12-22T05:07:47;98251.31;;;2.40;72.19
41040;BME280;48586;50.122;18.972;2022-12-22T05:09:51;98250.69;;;2.38;72.33
41040;BME280;48586;50.122;18.972;2022-12-22T05:11:57;98247.88;;;2.40;72.29
41040;BME280;48586;50.122;18.972;2022-12-22T05:14:23;98248.50;;;2.42;72.30
41040;BME280;48586;50.122;18.972;2022-12-22T05:16:27;98244.88;;;2.43;72.37
41040;BME280;48586;50.122;18.972;2022-12-22T05:18:31;98248.50;;;2.42;72.30
41040;BME280;48586;50.122;18.972;2022-12-22T05:20:36;98241.06;;;2.45;72.32
41040;BME280;48586;50.122;18.972;2022-12-22T05:22:40;98235.78;;;2.45;72.11
41040;BME280;48586;50.122;18.972;2022-12-22T05:24:44;98234.16;;;2.44;71.97
41040;BME280;48586;50.122;18.972;2022-12-22T05:26:49;98233.00;;;2.47;71.95
41040;BME280;48586;50.122;18.972;2022-12-22T05:28:55;98227.34;;;2.50;71.84
41040;BME280;48586;50.122;18.972;2022-12-22T05:31:03;98233.25;;;2.52;71.83
41040;BME280;48586;50.122;18.972;2022-12-22T05:33:09;98226.38;;;2.51;71.55
41040;BME280;48586;50.122;18.972;2022-12-22T05:35:13;98216.00;;;2.49;71.57
41040;BME280;48586;50.122;18.972;2022-12-22T05:37:18;98222.91;;;2.51;71.62
41040;BME280;48586;50.122;18.972;2022-12-22T05:39:23;98223.28;;;2.47;71.93
41040;BME280;48586;50.122;18.972;2022-12-22T05:41:27;98221.84;;;2.45;71.90
41040;BME280;48586;50.122;18.972;2022-12-22T05:43:31;98217.94;;;2.41;71.80
41040;BME280;48586;50.122;18.972;2022-12-22T05:45:39;98210.25;;;2.39;71.87
41040;BME280;48586;50.122;18.972;2022-12-22T05:47:46;98205.81;;;2.40;71.71
41040;BME280;48586;50.122;18.972;2022-12-22T05:49:52;98207.44;;;2.41;72.04
41040;BME280;48586;50.122;18.972;2022-12-22T05:51:58;98203.19;;;2.40;72.04
41040;BME280;48586;50.122;18.972;2022-12-22T05:54:03;98197.13;;;2.39;72.03
41040;BME280;48586;50.122;18.972;2022-12-22T05:56:07;98202.38;;;2.39;72.06
41040;BME280;48586;50.122;18.972;2022-12-22T05:58:12;98203.81;;;2.42;71.78
41040;BME280;48586;50.122;18.972;2022-12-22T06:00:17;98207.44;;;2.41;71.67
41040;BME280;48586;50.122;18.972;2022-12-22T06:02:25;98223.78;;;2.36;71.65
41040;BME280;48586;50.122;18.972;2022-12-22T06:04:30;98218.50;;;2.36;72.03
41040;BME280;48586;50.122;18.972;2022-12-22T06:06:34;98217.06;;;2.34;71.80
41040;BME280;48586;50.122;18.972;2022-12-22T06:08:38;98214.63;;;2.32;72.13
41040;BME280;48586;50.122;18.972;2022-12-22T06:10:42;98208.91;;;2.29;72.29
41040;BME280;48586;50.122;18.972;2022-12-22T06:12:47;98212.63;;;2.34;72.17
41040;BME280;48586;50.122;18.972;2022-12-22T06:14:52;98213.69;;;2.40;72.06
41040;BME280;48586;50.122;18.972;2022-12-22T06:16:57;98212.13;;;2.45;71.88
41040;BME280;48586;50.122;18.972;2022-12-22T06:19:03;98212.78;;;2.47;71.96
41040;BME280;48586;50.122;18.972;2022-12-22T06:21:08;98207.13;;;2.51;71.99
41040;BME280;48586;50.122;18.972;2022-12-22T06:23:12;98216.09;;;2.56;71.62
41040;BME280;48586;50.122;18.972;2022-12-22T06:25:18;98213.47;;;2.56;71.34
41040;BME280;48586;50.122;18.972;2022-12-22T06:27:22;98210.84;;;2.56;71.37
41040;BME280;48586;50.122;18.972;2022-12-22T06:29:27;98203.56;;;2.58;71.42
41040;BME280;48586;50.122;18.972;2022-12-22T06:31:31;98206.84;;;2.60;71.28
41040;BME280;48586;50.122;18.972;2022-12-22T06:33:35;98205.19;;;2.59;71.08
41040;BME280;48586;50.122;18.972;2022-12-22T06:35:42;98210.44;;;2.59;71.20
41040;BME280;48586;50.122;18.972;2022-12-22T06:37:47;98210.88;;;2.63;70.94
41040;BME280;48586;50.122;18.972;2022-12-22T06:39:51;98208.81;;;2.58;71.07
41040;BME280;48586;50.122;18.972;2022-12-22T06:41:55;98205.19;;;2.59;70.97
41040;BME280;48586;50.122;18.972;2022-12-22T06:44:12;98210.44;;;2.59;70.80
41040;BME280;48586;50.122;18.972;2022-12-22T06:46:16;98200.13;;;2.58;70.68
41040;BME280;48586;50.122;18.972;2022-12-22T06:48:21;98201.94;;;2.57;71.03
41040;BME280;48586;50.122;18.972;2022-12-22T06:50:26;98192.03;;;2.59;71.07
41040;BME280;48586;50.122;18.972;2022-12-22T06:52:33;98193.84;;;2.59;71.17
41040;BME280;48586;50.122;18.972;2022-12-22T06:54:38;98193.84;;;2.59;70.90
41040;BME280;48586;50.122;18.972;2022-12-22T06:56:42;98196.03;;;2.55;70.77
41040;BME280;48586;50.122;18.972;2022-12-22T06:58:47;98204.31;;;2.52;71.24
41040;BME280;48586;50.122;18.972;2022-12-22T07:00:54;98202.50;;;2.53;71.17
41040;BME280;48586;50.122;18.972;2022-12-22T07:02:59;98195.06;;;2.56;71.00
41040;BME280;48586;50.122;18.972;2022-12-22T07:05:04;98198.31;;;2.58;71.00
41040;BME280;48586;50.122;18.972;2022-12-22T07:07:11;98184.97;;;2.60;70.86
41040;BME280;48586;50.122;18.972;2022-12-22T07:09:18;98183.78;;;2.62;70.90
41040;BME280;48586;50.122;18.972;2022-12-22T07:11:22;98182.97;;;2.62;70.57
41040;BME280;48586;50.122;18.972;2022-12-22T07:13:31;98177.72;;;2.62;70.50
41040;BME280;48586;50.122;18.972;2022-12-22T07:15:37;98176.91;;;2.61;70.84
41040;BME280;48586;50.122;18.972;2022-12-22T07:17:41;98174.47;;;2.60;70.78
41040;BME280;48586;50.122;18.972;2022-12-22T07:19:48;98178.50;;;2.62;70.58
41040;BME280;48586;50.122;18.972;2022-12-22T07:21:56;98172.44;;;2.62;70.68
41040;BME280;48586;50.122;18.972;2022-12-22T07:24:00;98176.53;;;2.64;70.70
41040;BME280;48586;50.122;18.972;2022-12-22T07:26:09;98178.16;;;2.65;70.65
41040;BME280;48586;50.122;18.972;2022-12-22T07:28:15;98179.41;;;2.69;70.83
41040;BME280;48586;50.122;18.972;2022-12-22T07:30:20;98178.63;;;2.76;70.53
41040;BME280;48586;50.122;18.972;2022-12-22T07:32:26;98179.50;;;2.83;70.23
41040;BME280;48586;50.122;18.972;2022-12-22T07:34:30;98174.47;;;2.88;69.89
41040;BME280;48586;50.122;18.972;2022-12-22T07:36:34;98172.91;;;2.93;69.85
41040;BME280;48586;50.122;18.972;2022-12-22T07:38:41;98170.69;;;2.97;69.83
41040;BME280;48586;50.122;18.972;2022-12-22T07:40:47;98168.72;;;2.99;69.96
41040;BME280;48586;50.122;18.972;2022-12-22T07:42:58;98161.66;;;3.06;69.62
41040;BME280;48586;50.122;18.972;2022-12-22T07:45:02;98165.19;;;3.13;69.54
41040;BME280;48586;50.122;18.972;2022-12-22T07:47:07;98166.22;;;3.19;69.14
41040;BME280;48586;50.122;18.972;2022-12-22T07:49:11;98162.19;;;3.23;68.26
41040;BME280;48586;50.122;18.972;2022-12-22T07:51:31;98163.78;;;3.17;68.32
41040;BME280;48586;50.122;18.972;2022-12-22T07:53:38;98153.03;;;3.12;68.69
41040;BME280;48586;50.122;18.972;2022-12-22T07:55:43;98160.25;;;3.10;68.70
41040;BME280;48586;50.122;18.972;2022-12-22T07:57:48;98155.00;;;3.10;69.10
41040;BME280;48586;50.122;18.972;2022-12-22T07:59:55;98152.56;;;3.09;68.67
41040;BME280;48586;50.122;18.972;2022-12-22T08:01:59;98153.38;;;3.09;68.80
41040;BME280;48586;50.122;18.972;2022-12-22T08:04:05;98158.31;;;3.12;68.67
41040;BME280;48586;50.122;18.972;2022-12-22T08:06:09;98155.41;;;3.07;68.76
41040;BME280;48586;50.122;18.972;2022-12-22T08:08:13;98153.59;;;3.08;68.95
41040;BME280;48586;50.122;18.972;2022-12-22T08:10:19;98150.19;;;3.14;69.30
41040;BME280;48586;50.122;18.972;2022-12-22T08:12:23;98157.16;;;3.21;68.83
41040;BME280;48586;50.122;18.972;2022-12-22T08:14:29;98157.75;;;3.23;68.30
41040;BME280;48586;50.122;18.972;2022-12-22T08:16:37;98157.16;;;3.21;68.60
41040;BME280;48586;50.122;18.972;2022-12-22T08:18:41;98159.00;;;3.28;68.89
41040;BME280;48586;50.122;18.972;2022-12-22T08:20:48;98159.63;;;3.30;68.28
41040;BME280;48586;50.122;18.972;2022-12-22T08:22:55;98158.22;;;3.34;68.52
41040;BME280;48586;50.122;18.972;2022-12-22T08:24:59;98145.66;;;3.36;68.47
41040;BME280;48586;50.122;18.972;2022-12-22T08:27:10;98158.41;;;3.32;67.88
41040;BME280;48586;50.122;18.972;2022-12-22T08:29:21;98149.84;;;3.23;68.08
41040;BME280;48586;50.122;18.972;2022-12-22T08:31:29;98143.97;;;3.21;67.87
41040;BME280;48586;50.122;18.972;2022-12-22T08:33:37;98151.88;;;3.21;68.45
41040;BME280;48586;50.122;18.972;2022-12-22T08:35:42;98147.00;;;3.18;68.08
41040;BME280;48586;50.122;18.972;2022-12-22T08:37:47;98143.47;;;3.11;68.64
41040;BME280;48586;50.122;18.972;2022-12-22T08:39:57;98145.28;;;3.11;68.69
41040;BME280;48586;50.122;18.972;2022-12-22T08:42:10;98149.81;;;3.17;68.82
41040;BME280;48586;50.122;18.972;2022-12-22T08:44:22;98152.25;;;3.18;68.39
41040;BME280;48586;50.122;18.972;2022-12-22T08:46:27;98148.03;;;3.24;68.79
41040;BME280;48586;50.122;18.972;2022-12-22T08:48:33;98152.91;;;3.27;68.07
41040;BME280;48586;50.122;18.972;2022-12-22T08:50:39;98143.03;;;3.29;68.06
41040;BME280;48586;50.122;18.972;2022-12-22T08:52:44;98139.38;;;3.30;68.33
41040;BME280;48586;50.122;18.972;2022-12-22T08:54:49;98137.75;;;3.29;68.13
41040;BME280;48586;50.122;18.972;2022-12-22T08:56:53;98135.50;;;3.26;67.98
41040;BME280;48586;50.122;18.972;2022-12-22T08:58:58;98127.97;;;3.23;68.56
41040;BME280;48586;50.122;18.972;2022-12-22T09:01:05;98123.97;;;3.27;68.61
41040;BME280;48586;50.122;18.972;2022-12-22T09:03:10;98126.44;;;3.35;68.29
41040;BME280;48586;50.122;18.972;2022-12-22T09:05:14;98126.06;;;3.38;68.18
41040;BME280;48586;50.122;18.972;2022-12-22T09:07:22;98127.31;;;3.49;68.27
41040;BME280;48586;50.122;18.972;2022-12-22T09:09:30;98125.53;;;3.63;68.02
41040;BME280;48586;50.122;18.972;2022-12-22T09:11:35;98119.13;;;3.72;68.17
41040;BME280;48586;50.122;18.972;2022-12-22T09:13:40;98103.94;;;3.81;67.08
41040;BME280;48586;50.122;18.972;2022-12-22T09:15:45;98104.75;;;3.88;66.78
41040;BME280;48586;50.122;18.972;2022-12-22T09:17:49;98105.19;;;3.91;66.65
41040;BME280;48586;50.122;18.972;2022-12-22T09:19:54;98103.97;;;3.94;66.68
41040;BME280;48586;50.122;18.972;2022-12-22T09:21:58;98105.59;;;4.02;66.95
41040;BME280;48586;50.122;18.972;2022-12-22T09:24:06;98084.53;;;4.08;66.27
41040;BME280;48586;50.122;18.972;2022-12-22T09:26:15;98079.88;;;4.17;66.79
41040;BME280;48586;50.122;18.972;2022-12-22T09:28:20;98083.56;;;4.29;67.28
41040;BME280;48586;50.122;18.972;2022-12-22T09:30:25;98079.28;;;4.48;67.18
41040;BME280;48586;50.122;18.972;2022-12-22T09:32:30;98068.91;;;4.66;67.20
41040;BME280;48586;50.122;18.972;2022-12-22T09:34:34;98064.25;;;4.82;65.91
41040;BME280;48586;50.122;18.972;2022-12-22T09:36:40;98056.88;;;4.97;66.34
41040;BME280;48586;50.122;18.972;2022-12-22T09:38:46;98056.03;;;5.16;64.76
41040;BME280;48586;50.122;18.972;2022-12-22T09:40:53;98053.13;;;5.31;64.79
41040;BME280;48586;50.122;18.972;2022-12-22T09:42:59;98044.97;;;5.46;63.29
41040;BME280;48586;50.122;18.972;2022-12-22T09:45:12;98039.59;;;5.66;63.19
41040;BME280;48586;50.122;18.972;2022-12-22T09:47:26;98037.25;;;5.83;62.24
41040;BME280;48586;50.122;18.972;2022-12-22T09:49:38;98028.81;;;5.99;62.65
41040;BME280;48586;50.122;18.972;2022-12-22T09:51:46;98038.47;;;6.18;61.45
41040;BME280;48586;50.122;18.972;2022-12-22T09:53:56;98029.63;;;6.31;61.55
41040;BME280;48586;50.122;18.972;2022-12-22T09:56:10;98029.66;;;6.49;61.40
41040;BME280;48586;50.122;18.972;2022-12-22T09:58:24;98031.09;;;6.70;61.26
41040;BME280;48586;50.122;18.972;2022-12-22T10:00:35;98020.94;;;6.86;60.67
41040;BME280;48586;50.122;18.972;2022-12-22T10:02:49;98016.97;;;6.95;59.12
41040;BME280;48586;50.122;18.972;2022-12-22T10:05:17;98026.31;;;7.16;59.29
41040;BME280;48586;50.122;18.972;2022-12-22T10:07:32;98017.56;;;7.34;59.15
41040;BME280;48586;50.122;18.972;2022-12-22T10:09:38;98017.34;;;7.54;58.51
41040;BME280;48586;50.122;18.972;2022-12-22T10:11:53;98019.81;;;7.67;57.43
41040;BME280;48586;50.122;18.972;2022-12-22T10:13:59;98005.06;;;7.71;57.25
41040;BME280;48586;50.122;18.972;2022-12-22T10:16:15;98011.31;;;7.77;56.91
41040;BME280;48586;50.122;18.972;2022-12-22T10:18:24;98006.13;;;7.82;56.73
41040;BME280;48586;50.122;18.972;2022-12-22T10:20:30;98005.81;;;7.90;56.62
41040;BME280;48586;50.122;18.972;2022-12-22T10:22:47;98002.50;;;8.06;56.96
41040;BME280;48586;50.122;18.972;2022-12-22T10:24:55;97995.47;;;8.12;55.34
41040;BME280;48586;50.122;18.972;2022-12-22T10:27:02;98004.59;;;8.16;55.39
41040;BME280;48586;50.122;18.972;2022-12-22T10:29:10;97993.53;;;8.19;55.61
41040;BME280;48586;50.122;18.972;2022-12-22T10:31:20;97992.97;;;8.17;55.50
41040;BME280;48586;50.122;18.972;2022-12-22T10:33:33;97992.72;;;8.18;56.23
41040;BME280;48586;50.122;18.972;2022-12-22T10:35:45;97982.00;;;8.25;55.17
41040;BME280;48586;50.122;18.972;2022-12-22T10:37:53;97979.81;;;8.22;55.10
41040;BME280;48586;50.122;18.972;2022-12-22T10:39:58;97973.47;;;8.35;55.49
41040;BME280;48586;50.122;18.972;2022-12-22T10:42:11;97968.84;;;8.54;56.56
41040;BME280;48586;50.122;18.972;2022-12-22T10:44:21;97968.38;;;8.68;54.41
41040;BME280;48586;50.122;18.972;2022-12-22T10:46:32;97960.53;;;8.73;55.17
41040;BME280;48586;50.122;18.972;2022-12-22T10:48:40;97959.94;;;8.83;54.31
41040;BME280;48586;50.122;18.972;2022-12-22T10:50:47;97956.56;;;8.88;54.47
41040;BME280;48586;50.122;18.972;2022-12-22T10:52:55;97954.03;;;8.93;53.71
41040;BME280;48586;50.122;18.972;2022-12-22T10:55:17;97957.34;;;9.00;52.99
41040;BME280;48586;50.122;18.972;2022-12-22T10:57:31;97948.13;;;9.03;52.91
41040;BME280;48586;50.122;18.972;2022-12-22T10:59:47;97941.19;;;9.13;53.24
41040;BME280;48586;50.122;18.972;2022-12-22T11:01:53;97941.78;;;9.32;53.39
41040;BME280;48586;50.122;18.972;2022-12-22T11:04:16;97935.81;;;9.54;52.27
41040;BME280;48586;50.122;18.972;2022-12-22T11:06:25;97943.09;;;9.75;51.85
41040;BME280;48586;50.122;18.972;2022-12-22T11:08:31;97942.53;;;9.73;50.83
41040;BME280;48586;50.122;18.972;2022-12-22T11:10:43;97935.41;;;9.62;51.00
41040;BME280;48586;50.122;18.972;2022-12-22T11:13:17;97944.22;;;9.34;51.37
41040;BME280;48586;50.122;18.972;2022-12-22T11:15:41;97940.03;;;9.09;52.80
41040;BME280;48586;50.122;18.972;2022-12-22T11:18:03;97941.53;;;8.93;53.19
41040;BME280;48586;50.122;18.972;2022-12-22T11:20:31;97924.50;;;8.78;53.66
41040;BME280;48586;50.122;18.972;2022-12-22T11:22:59;97921.25;;;8.75;53.24
41040;BME280;48586;50.122;18.972;2022-12-22T11:25:21;97925.06;;;8.80;53.72
41040;BME280;48586;50.122;18.972;2022-12-22T11:27:44;97923.28;;;8.97;54.45
41040;BME280;48586;50.122;18.972;2022-12-22T11:30:09;97920.16;;;9.12;53.62
41040;BME280;48586;50.122;18.972;2022-12-22T11:35:07;97923.25;;;9.20;53.16
41040;BME280;48586;50.122;18.972;2022-12-22T11:37:29;97915.03;;;9.22;52.35
41040;BME280;48586;50.122;18.972;2022-12-22T11:39:46;97911.22;;;9.18;52.97
41040;BME280;48586;50.122;18.972;2022-12-22T11:42:08;97911.84;;;9.08;52.91